Aérodrome :
LOGIN :

S'inscrire | Disclaimer

   EN    FR    IT 

 










Légende :    VFR   VFR Marginal   IFR   IFR Intensif   IFR Très Intensif
Visi : 
Plafond : 
>= 8 km
>= 3000ft
5 à 8 km
1000 à 3000 ft
1500m à 5 km
500 à 1000 ft
800 à 1500m
200 à 500 ft
< 800m
< 200 ft
Symboles :   Orages  Brouillard  Fortes neiges  Fortes précipitations  Vent > 20 kt
SIGMETs :   Divers  Orages  Givrage  Turbulence  Onde Orograph.  Cendres Volcan.







- Altitude de l'aérodrome : 235 ft
- Code IATA : BZG


EPBY - Bydgoszcz

DERNIER METAR :
  • 270500Z 22009KT CAVOK 16/09 Q1007

METARs EXPIRÉS :
  • 270430Z 21010KT CAVOK 16/09 Q1007
  • 270400Z 21009KT CAVOK 16/09 Q1007
  • 270330Z 21008KT CAVOK 16/09 Q1007
  • 270300Z 22008KT CAVOK 15/09 Q1007
  • 270230Z 21009KT CAVOK 15/09 Q1007

TAF TAF EPBY
Valide du 27 à 00h jusqu'au 28 à 00h UTC


262330Z 2700/2724 20005KT CAVOK
BECMG 2703/2706 20015KT
BECMG 2708/2711 26015KT
BECMG 2715/2718 VRB02KT
Pas de NOTAMs connus pour ce terrain.



MET'MAP, la Météo Aéronautique d'un coup d'oeil ! - Copyright ORBIFLY Décembre 2007 - Disclaimer

ORBIFLY MET'MAP TEAM :

Programmation & Développement : Alexandra Zaïnal
Conception & Développement : Baudouin d'Aumeries
Co-Programmation & Développement : Marc-Olivier Méhu
Soutien technique & logistique : Manuel Goepfert

Contact : metmap@orbifly.com




SOURCES & CREDITS :

   NOAA